<?xml version="1.0" encoding="UTF-8" standalone="no" ?>
<gpx xmlns="http://www.topografix.com/GPX/1/1" xmlns:xsi="http://www.w3.org/2001/XMLSchema-instance" xsi:schemaLocation="http://www.topografix.com/GPX/1/1 http://www.topografix.com/GPX/1/1/gpx.xsd" version="1.1" creator="VisuGPX - https://www.visugpx.com">
  <metadata>
    <name>Turquie_100points</name>
  </metadata>
  <trk>
    <name><![CDATA[Tour d'Europe: étape 571]]></name>
    <extensions>
      <line xmlns="http://www.topografix.com/GPX/gpx_style/0/2">
        <color>FF00FF</color>
        <width>4</width>
      </line>
    </extensions>
    <trkseg>
      <trkpt lat="36.50179" lon="30.52356">
        <ele>49.475923</ele>
        <time>2022-01-20T05:54:42.509Z</time>
      </trkpt>
      <trkpt lat="36.50271" lon="30.52368">
        <ele>47.73734</ele>
        <time>2022-01-20T06:14:22.711Z</time>
      </trkpt>
      <trkpt lat="36.50447" lon="30.52337">
        <ele>35.493186</ele>
        <time>2022-01-20T06:15:34.706Z</time>
      </trkpt>
      <trkpt lat="36.50625" lon="30.52163">
        <ele>40.047714</ele>
        <time>2022-01-20T06:16:52.700Z</time>
      </trkpt>
      <trkpt lat="36.50779" lon="30.51968">
        <ele>56.063682</ele>
        <time>2022-01-20T06:18:12.699Z</time>
      </trkpt>
      <trkpt lat="36.50855" lon="30.51711">
        <ele>74.177785</ele>
        <time>2022-01-20T06:19:41.734Z</time>
      </trkpt>
      <trkpt lat="36.50982" lon="30.51574">
        <ele>64.046722</ele>
        <time>2022-01-20T06:21:20.706Z</time>
      </trkpt>
      <trkpt lat="36.5093" lon="30.5131">
        <ele>94.806882</ele>
        <time>2022-01-20T06:22:47.707Z</time>
      </trkpt>
      <trkpt lat="36.50906" lon="30.51037">
        <ele>105.425503</ele>
        <time>2022-01-20T06:24:24.717Z</time>
      </trkpt>
      <trkpt lat="36.5088" lon="30.50767">
        <ele>94.294507</ele>
        <time>2022-01-20T06:25:46.737Z</time>
      </trkpt>
      <trkpt lat="36.50894" lon="30.50488">
        <ele>130.784093</ele>
        <time>2022-01-20T06:26:59.710Z</time>
      </trkpt>
      <trkpt lat="36.50873" lon="30.50232">
        <ele>164.167554</ele>
        <time>2022-01-20T06:28:23.752Z</time>
      </trkpt>
      <trkpt lat="36.50782" lon="30.49983">
        <ele>116.066791</ele>
        <time>2022-01-20T06:30:09.685Z</time>
      </trkpt>
      <trkpt lat="36.50621" lon="30.49789">
        <ele>77.922787</ele>
        <time>2022-01-20T06:31:29.706Z</time>
      </trkpt>
      <trkpt lat="36.50425" lon="30.4966">
        <ele>107.332856</ele>
        <time>2022-01-20T06:33:27.704Z</time>
      </trkpt>
      <trkpt lat="36.5031" lon="30.49448">
        <ele>106.854092</ele>
        <time>2022-01-20T06:35:27.731Z</time>
      </trkpt>
      <trkpt lat="36.50206" lon="30.49183">
        <ele>113.057716</ele>
        <time>2022-01-20T06:36:56.709Z</time>
      </trkpt>
      <trkpt lat="36.50053" lon="30.49">
        <ele>120.138971</ele>
        <time>2022-01-20T06:38:33.757Z</time>
      </trkpt>
      <trkpt lat="36.49877" lon="30.48848">
        <ele>126.870691</ele>
        <time>2022-01-20T06:40:14.704Z</time>
      </trkpt>
      <trkpt lat="36.49746" lon="30.48636">
        <ele>143.369832</ele>
        <time>2022-01-20T06:42:03.732Z</time>
      </trkpt>
      <trkpt lat="36.4972" lon="30.48383">
        <ele>158.350958</ele>
        <time>2022-01-20T06:43:51.722Z</time>
      </trkpt>
      <trkpt lat="36.49648" lon="30.48143">
        <ele>170.582765</ele>
        <time>2022-01-20T06:46:06.721Z</time>
      </trkpt>
      <trkpt lat="36.49467" lon="30.48019">
        <ele>169.852692</ele>
        <time>2022-01-20T06:48:05.718Z</time>
      </trkpt>
      <trkpt lat="36.49304" lon="30.47852">
        <ele>189.066672</ele>
        <time>2022-01-20T06:50:18.707Z</time>
      </trkpt>
      <trkpt lat="36.49162" lon="30.47671">
        <ele>206.387955</ele>
        <time>2022-01-20T06:52:36.694Z</time>
      </trkpt>
      <trkpt lat="36.49076" lon="30.47417">
        <ele>214.052952</ele>
        <time>2022-01-20T06:54:31.698Z</time>
      </trkpt>
      <trkpt lat="36.49066" lon="30.47157">
        <ele>221.575119</ele>
        <time>2022-01-20T06:56:02.762Z</time>
      </trkpt>
      <trkpt lat="36.48949" lon="30.46956">
        <ele>225.25136</ele>
        <time>2022-01-20T06:58:03.740Z</time>
      </trkpt>
      <trkpt lat="36.48818" lon="30.46752">
        <ele>238.356726</ele>
        <time>2022-01-20T07:00:48.708Z</time>
      </trkpt>
      <trkpt lat="36.48648" lon="30.46629">
        <ele>250.363938</ele>
        <time>2022-01-20T07:03:19.723Z</time>
      </trkpt>
      <trkpt lat="36.48475" lon="30.4647">
        <ele>290.100163</ele>
        <time>2022-01-20T07:08:09.739Z</time>
      </trkpt>
      <trkpt lat="36.4842" lon="30.46256">
        <ele>312.202143</ele>
        <time>2022-01-20T07:10:41.715Z</time>
      </trkpt>
      <trkpt lat="36.48334" lon="30.46022">
        <ele>306.665854</ele>
        <time>2022-01-20T07:13:33.732Z</time>
      </trkpt>
      <trkpt lat="36.48276" lon="30.45791">
        <ele>319.072904</ele>
        <time>2022-01-20T07:16:25.746Z</time>
      </trkpt>
      <trkpt lat="36.48325" lon="30.45542">
        <ele>344.734013</ele>
        <time>2022-01-20T07:19:32.732Z</time>
      </trkpt>
      <trkpt lat="36.48302" lon="30.45299">
        <ele>356.902323</ele>
        <time>2022-01-20T07:22:18.708Z</time>
      </trkpt>
      <trkpt lat="36.48196" lon="30.45079">
        <ele>360.071103</ele>
        <time>2022-01-20T07:24:41.726Z</time>
      </trkpt>
      <trkpt lat="36.48074" lon="30.44881">
        <ele>369.511444</ele>
        <time>2022-01-20T07:26:47.735Z</time>
      </trkpt>
      <trkpt lat="36.47949" lon="30.44679">
        <ele>380.195234</ele>
        <time>2022-01-20T07:28:52.737Z</time>
      </trkpt>
      <trkpt lat="36.47815" lon="30.44468">
        <ele>388.054774</ele>
        <time>2022-01-20T07:31:19.734Z</time>
      </trkpt>
      <trkpt lat="36.47697" lon="30.44259">
        <ele>395.562858</ele>
        <time>2022-01-20T07:33:25.724Z</time>
      </trkpt>
      <trkpt lat="36.47529" lon="30.4402">
        <ele>393.077711</ele>
        <time>2022-01-20T07:38:05.720Z</time>
      </trkpt>
      <trkpt lat="36.47352" lon="30.43804">
        <ele>380.104489</ele>
        <time>2022-01-20T07:38:36.715Z</time>
      </trkpt>
      <trkpt lat="36.47177" lon="30.43589">
        <ele>358.759553</ele>
        <time>2022-01-20T07:38:58.731Z</time>
      </trkpt>
      <trkpt lat="36.47061" lon="30.43363">
        <ele>345.301346</ele>
        <time>2022-01-20T07:39:19.727Z</time>
      </trkpt>
      <trkpt lat="36.46959" lon="30.4309">
        <ele>341.157043</ele>
        <time>2022-01-20T07:39:45.731Z</time>
      </trkpt>
      <trkpt lat="36.46755" lon="30.42902">
        <ele>340.500635</ele>
        <time>2022-01-20T07:40:29.751Z</time>
      </trkpt>
      <trkpt lat="36.46516" lon="30.42883">
        <ele>342.998725</ele>
        <time>2022-01-20T07:41:35.726Z</time>
      </trkpt>
      <trkpt lat="36.46286" lon="30.42888">
        <ele>346.891923</ele>
        <time>2022-01-20T07:42:38.732Z</time>
      </trkpt>
      <trkpt lat="36.46071" lon="30.42851">
        <ele>348.083158</ele>
        <time>2022-01-20T07:43:41.745Z</time>
      </trkpt>
      <trkpt lat="36.45858" lon="30.42756">
        <ele>350.991702</ele>
        <time>2022-01-20T07:44:56.721Z</time>
      </trkpt>
      <trkpt lat="36.45637" lon="30.42768">
        <ele>355.106432</ele>
        <time>2022-01-20T07:46:03.728Z</time>
      </trkpt>
      <trkpt lat="36.45406" lon="30.42831">
        <ele>346.339226</ele>
        <time>2022-01-20T07:46:53.747Z</time>
      </trkpt>
      <trkpt lat="36.45138" lon="30.42821">
        <ele>336.1355</ele>
        <time>2022-01-20T07:47:35.762Z</time>
      </trkpt>
      <trkpt lat="36.44894" lon="30.42868">
        <ele>333.493943</ele>
        <time>2022-01-20T07:48:26.723Z</time>
      </trkpt>
      <trkpt lat="36.44716" lon="30.43106">
        <ele>334.978738</ele>
        <time>2022-01-20T07:49:10.736Z</time>
      </trkpt>
      <trkpt lat="36.44518" lon="30.43261">
        <ele>338.023312</ele>
        <time>2022-01-20T07:50:16.734Z</time>
      </trkpt>
      <trkpt lat="36.44311" lon="30.43309">
        <ele>348.488902</ele>
        <time>2022-01-20T07:52:10.750Z</time>
      </trkpt>
      <trkpt lat="36.44096" lon="30.4328">
        <ele>350.162843</ele>
        <time>2022-01-20T07:54:25.713Z</time>
      </trkpt>
      <trkpt lat="36.43936" lon="30.43097">
        <ele>354.132935</ele>
        <time>2022-01-20T07:58:31.736Z</time>
      </trkpt>
      <trkpt lat="36.43758" lon="30.42961">
        <ele>364.299231</ele>
        <time>2022-01-20T08:00:28.731Z</time>
      </trkpt>
      <trkpt lat="36.43554" lon="30.42884">
        <ele>374.344976</ele>
        <time>2022-01-20T08:02:40.741Z</time>
      </trkpt>
      <trkpt lat="36.43355" lon="30.42916">
        <ele>387.402123</ele>
        <time>2022-01-20T08:04:49.731Z</time>
      </trkpt>
      <trkpt lat="36.43187" lon="30.42747">
        <ele>396.083309</ele>
        <time>2022-01-20T08:07:03.767Z</time>
      </trkpt>
      <trkpt lat="36.43045" lon="30.42568">
        <ele>406.389476</ele>
        <time>2022-01-20T08:09:14.761Z</time>
      </trkpt>
      <trkpt lat="36.42848" lon="30.42486">
        <ele>422.701681</ele>
        <time>2022-01-20T08:11:41.736Z</time>
      </trkpt>
      <trkpt lat="36.42627" lon="30.42487">
        <ele>438.408918</ele>
        <time>2022-01-20T08:18:07.734Z</time>
      </trkpt>
      <trkpt lat="36.42421" lon="30.42407">
        <ele>448.602811</ele>
        <time>2022-01-20T08:20:05.744Z</time>
      </trkpt>
      <trkpt lat="36.42243" lon="30.42284">
        <ele>458.418033</ele>
        <time>2022-01-20T08:22:24.747Z</time>
      </trkpt>
      <trkpt lat="36.42035" lon="30.42223">
        <ele>466.284779</ele>
        <time>2022-01-20T08:24:58.740Z</time>
      </trkpt>
      <trkpt lat="36.41834" lon="30.42174">
        <ele>474.582797</ele>
        <time>2022-01-20T08:27:28.746Z</time>
      </trkpt>
      <trkpt lat="36.41631" lon="30.42137">
        <ele>475.646251</ele>
        <time>2022-01-20T08:29:59.730Z</time>
      </trkpt>
      <trkpt lat="36.41416" lon="30.42197">
        <ele>494.557556</ele>
        <time>2022-01-20T08:32:19.739Z</time>
      </trkpt>
      <trkpt lat="36.41218" lon="30.42237">
        <ele>498.686209</ele>
        <time>2022-01-20T08:34:23.754Z</time>
      </trkpt>
      <trkpt lat="36.41006" lon="30.42206">
        <ele>507.099678</ele>
        <time>2022-01-20T08:36:31.732Z</time>
      </trkpt>
      <trkpt lat="36.40826" lon="30.42093">
        <ele>524.630357</ele>
        <time>2022-01-20T08:38:33.746Z</time>
      </trkpt>
      <trkpt lat="36.40676" lon="30.41899">
        <ele>534.588986</ele>
        <time>2022-01-20T08:40:30.737Z</time>
      </trkpt>
      <trkpt lat="36.40625" lon="30.41665">
        <ele>548.03112</ele>
        <time>2022-01-20T08:42:01.729Z</time>
      </trkpt>
      <trkpt lat="36.40411" lon="30.41598">
        <ele>553.113381</ele>
        <time>2022-01-20T08:43:47.745Z</time>
      </trkpt>
      <trkpt lat="36.40224" lon="30.41471">
        <ele>540.105219</ele>
        <time>2022-01-20T08:45:25.747Z</time>
      </trkpt>
      <trkpt lat="36.40054" lon="30.4133">
        <ele>544.966992</ele>
        <time>2022-01-20T08:47:32.756Z</time>
      </trkpt>
      <trkpt lat="36.39908" lon="30.41133">
        <ele>554.606297</ele>
        <time>2022-01-20T08:50:14.754Z</time>
      </trkpt>
      <trkpt lat="36.3977" lon="30.40944">
        <ele>566.626708</ele>
        <time>2022-01-20T08:52:35.776Z</time>
      </trkpt>
      <trkpt lat="36.39671" lon="30.40707">
        <ele>570.50222</ele>
        <time>2022-01-20T08:54:35.735Z</time>
      </trkpt>
      <trkpt lat="36.39583" lon="30.4047">
        <ele>569.358507</ele>
        <time>2022-01-20T08:56:08.760Z</time>
      </trkpt>
      <trkpt lat="36.39424" lon="30.40252">
        <ele>579.01631</ele>
        <time>2022-01-20T08:57:36.744Z</time>
      </trkpt>
      <trkpt lat="36.39276" lon="30.40069">
        <ele>588.474269</ele>
        <time>2022-01-20T08:59:27.755Z</time>
      </trkpt>
      <trkpt lat="36.3912" lon="30.39879">
        <ele>593.01627</ele>
        <time>2022-01-20T09:01:12.752Z</time>
      </trkpt>
      <trkpt lat="36.38986" lon="30.39664">
        <ele>586.337664</ele>
        <time>2022-01-20T09:02:21.747Z</time>
      </trkpt>
      <trkpt lat="36.38886" lon="30.39413">
        <ele>588.920436</ele>
        <time>2022-01-20T09:03:31.757Z</time>
      </trkpt>
      <trkpt lat="36.38781" lon="30.39183">
        <ele>597.659832</ele>
        <time>2022-01-20T09:04:53.749Z</time>
      </trkpt>
      <trkpt lat="36.38664" lon="30.38977">
        <ele>605.446494</ele>
        <time>2022-01-20T09:07:03.747Z</time>
      </trkpt>
      <trkpt lat="36.38513" lon="30.38783">
        <ele>600.931599</ele>
        <time>2022-01-20T09:09:14.765Z</time>
      </trkpt>
      <trkpt lat="36.38356" lon="30.38601">
        <ele>585.026806</ele>
        <time>2022-01-20T09:10:55.757Z</time>
      </trkpt>
      <trkpt lat="36.38187" lon="30.38412">
        <ele>588.925488</ele>
        <time>2022-01-20T09:12:04.786Z</time>
      </trkpt>
      <trkpt lat="36.37975" lon="30.38282">
        <ele>578.580098</ele>
        <time>2022-01-20T09:20:11.744Z</time>
      </trkpt>
      <trkpt lat="36.37848" lon="30.37942">
        <ele>559.781224</ele>
        <time>2022-01-20T09:20:55.750Z</time>
      </trkpt>
      <trkpt lat="36.37977" lon="30.37551">
        <ele>535.763349</ele>
        <time>2022-01-20T09:21:35.764Z</time>
      </trkpt>
      <trkpt lat="36.38011" lon="30.37183">
        <ele>520.114706</ele>
        <time>2022-01-20T09:22:13.762Z</time>
      </trkpt>
      <trkpt lat="36.37789" lon="30.37035">
        <ele>506.535988</ele>
        <time>2022-01-20T09:22:45.769Z</time>
      </trkpt>
      <trkpt lat="36.3755" lon="30.37082">
        <ele>483.470872</ele>
        <time>2022-01-20T09:23:07.758Z</time>
      </trkpt>
      <trkpt lat="36.37341" lon="30.3701">
        <ele>473.702325</ele>
        <time>2022-01-20T09:26:54.767Z</time>
      </trkpt>
      <trkpt lat="36.37129" lon="30.37131">
        <ele>462.318176</ele>
        <time>2022-01-20T09:27:29.748Z</time>
      </trkpt>
      <trkpt lat="36.36857" lon="30.3711">
        <ele>447.481454</ele>
        <time>2022-01-20T09:28:00.780Z</time>
      </trkpt>
      <trkpt lat="36.36626" lon="30.37284">
        <ele>431.63889</ele>
        <time>2022-01-20T09:28:31.756Z</time>
      </trkpt>
      <trkpt lat="36.36425" lon="30.37384">
        <ele>414.834496</ele>
        <time>2022-01-20T09:28:53.757Z</time>
      </trkpt>
      <trkpt lat="36.36209" lon="30.37346">
        <ele>400.911385</ele>
        <time>2022-01-20T09:29:14.735Z</time>
      </trkpt>
      <trkpt lat="36.35988" lon="30.37317">
        <ele>387.588214</ele>
        <time>2022-01-20T09:29:37.751Z</time>
      </trkpt>
      <trkpt lat="36.3575" lon="30.3742">
        <ele>376.943073</ele>
        <time>2022-01-20T09:30:05.758Z</time>
      </trkpt>
      <trkpt lat="36.35604" lon="30.37654">
        <ele>376.297554</ele>
        <time>2022-01-20T09:30:31.758Z</time>
      </trkpt>
      <trkpt lat="36.35432" lon="30.37798">
        <ele>366.297317</ele>
        <time>2022-01-20T09:30:52.750Z</time>
      </trkpt>
      <trkpt lat="36.35242" lon="30.3768">
        <ele>352.433736</ele>
        <time>2022-01-20T09:31:14.755Z</time>
      </trkpt>
      <trkpt lat="36.35079" lon="30.37532">
        <ele>335.96615</ele>
        <time>2022-01-20T09:31:36.759Z</time>
      </trkpt>
      <trkpt lat="36.34859" lon="30.37446">
        <ele>306.859534</ele>
        <time>2022-01-20T09:32:04.756Z</time>
      </trkpt>
      <trkpt lat="36.35048" lon="30.37214">
        <ele>284.161958</ele>
        <time>2022-01-20T09:32:38.772Z</time>
      </trkpt>
      <trkpt lat="36.35232" lon="30.37027">
        <ele>268.952881</ele>
        <time>2022-01-20T09:33:04.759Z</time>
      </trkpt>
      <trkpt lat="36.35432" lon="30.37209">
        <ele>245.204031</ele>
        <time>2022-01-20T09:33:33.759Z</time>
      </trkpt>
      <trkpt lat="36.35535" lon="30.3696">
        <ele>231.932849</ele>
        <time>2022-01-20T09:34:04.746Z</time>
      </trkpt>
      <trkpt lat="36.35633" lon="30.36665">
        <ele>217.875572</ele>
        <time>2022-01-20T09:34:34.763Z</time>
      </trkpt>
      <trkpt lat="36.35722" lon="30.36308">
        <ele>199.044309</ele>
        <time>2022-01-20T09:35:11.785Z</time>
      </trkpt>
      <trkpt lat="36.35852" lon="30.36029">
        <ele>173.890246</ele>
        <time>2022-01-20T09:35:40.747Z</time>
      </trkpt>
      <trkpt lat="36.36078" lon="30.35865">
        <ele>165.074636</ele>
        <time>2022-01-20T09:36:14.791Z</time>
      </trkpt>
      <trkpt lat="36.36322" lon="30.35744">
        <ele>157.917876</ele>
        <time>2022-01-20T09:36:46.747Z</time>
      </trkpt>
      <trkpt lat="36.36379" lon="30.35487">
        <ele>158.890776</ele>
        <time>2022-01-20T09:37:15.752Z</time>
      </trkpt>
      <trkpt lat="36.3639" lon="30.35226">
        <ele>162.531677</ele>
        <time>2022-01-20T09:38:49.771Z</time>
      </trkpt>
      <trkpt lat="36.36483" lon="30.34925">
        <ele>161.774589</ele>
        <time>2022-01-20T09:39:55.770Z</time>
      </trkpt>
      <trkpt lat="36.36457" lon="30.34662">
        <ele>149.338272</ele>
        <time>2022-01-20T09:40:16.766Z</time>
      </trkpt>
      <trkpt lat="36.36622" lon="30.34432">
        <ele>127.714326</ele>
        <time>2022-01-20T09:40:41.769Z</time>
      </trkpt>
      <trkpt lat="36.36782" lon="30.34101">
        <ele>116.041487</ele>
        <time>2022-01-20T09:41:23.758Z</time>
      </trkpt>
      <trkpt lat="36.36645" lon="30.34077">
        <ele>115.4117</ele>
        <time>2022-01-20T09:42:38.756Z</time>
      </trkpt>
      <trkpt lat="36.36422" lon="30.34283">
        <ele>109.474432</ele>
        <time>2022-01-20T09:43:26.760Z</time>
      </trkpt>
      <trkpt lat="36.36267" lon="30.34354">
        <ele>90.173386</ele>
        <time>2022-01-20T09:44:16.781Z</time>
      </trkpt>
      <trkpt lat="36.36249" lon="30.34077">
        <ele>85.50132</ele>
        <time>2022-01-20T09:44:58.765Z</time>
      </trkpt>
      <trkpt lat="36.36197" lon="30.33794">
        <ele>82.375837</ele>
        <time>2022-01-20T09:45:41.768Z</time>
      </trkpt>
      <trkpt lat="36.36123" lon="30.3351">
        <ele>80.277135</ele>
        <time>2022-01-20T09:46:39.770Z</time>
      </trkpt>
      <trkpt lat="36.36047" lon="30.33235">
        <ele>77.542882</ele>
        <time>2022-01-20T09:47:36.763Z</time>
      </trkpt>
      <trkpt lat="36.35962" lon="30.32952">
        <ele>71.235861</ele>
        <time>2022-01-20T09:48:38.764Z</time>
      </trkpt>
      <trkpt lat="36.35876" lon="30.32675">
        <ele>67.677526</ele>
        <time>2022-01-20T09:49:39.745Z</time>
      </trkpt>
      <trkpt lat="36.35683" lon="30.32479">
        <ele>58.266486</ele>
        <time>2022-01-20T09:50:26.752Z</time>
      </trkpt>
      <trkpt lat="36.35492" lon="30.32311">
        <ele>56.331428</ele>
        <time>2022-01-20T09:51:20.763Z</time>
      </trkpt>
      <trkpt lat="36.3529" lon="30.32234">
        <ele>52.778543</ele>
        <time>2022-01-20T09:52:04.757Z</time>
      </trkpt>
      <trkpt lat="36.35061" lon="30.32161">
        <ele>48.902293</ele>
        <time>2022-01-20T09:52:58.756Z</time>
      </trkpt>
      <trkpt lat="36.34901" lon="30.32029">
        <ele>51.039896</ele>
        <time>2022-01-20T09:53:58.761Z</time>
      </trkpt>
      <trkpt lat="36.34996" lon="30.31788">
        <ele>55.27889</ele>
        <time>2022-01-20T09:54:56.766Z</time>
      </trkpt>
      <trkpt lat="36.34957" lon="30.31528">
        <ele>54.153338</ele>
        <time>2022-01-20T09:55:41.753Z</time>
      </trkpt>
      <trkpt lat="36.34987" lon="30.31272">
        <ele>53.036931</ele>
        <time>2022-01-20T09:56:47.750Z</time>
      </trkpt>
      <trkpt lat="36.34878" lon="30.31038">
        <ele>50.689161</ele>
        <time>2022-01-20T09:57:55.803Z</time>
      </trkpt>
      <trkpt lat="36.34801" lon="30.30775">
        <ele>48.949017</ele>
        <time>2022-01-20T09:58:52.760Z</time>
      </trkpt>
      <trkpt lat="36.3472" lon="30.30582">
        <ele>38.869662</ele>
        <time>2022-01-20T10:00:07.767Z</time>
      </trkpt>
      <trkpt lat="36.34725" lon="30.30302">
        <ele>36.914591</ele>
        <time>2022-01-20T10:01:17.767Z</time>
      </trkpt>
      <trkpt lat="36.34621" lon="30.30037">
        <ele>34.664555</ele>
        <time>2022-01-20T10:02:20.816Z</time>
      </trkpt>
      <trkpt lat="36.34481" lon="30.29843">
        <ele>39.978478</ele>
        <time>2022-01-20T10:03:30.769Z</time>
      </trkpt>
      <trkpt lat="36.34235" lon="30.29781">
        <ele>42.931074</ele>
        <time>2022-01-20T10:04:29.747Z</time>
      </trkpt>
      <trkpt lat="36.3397" lon="30.2971">
        <ele>39.933782</ele>
        <time>2022-01-20T10:05:35.768Z</time>
      </trkpt>
      <trkpt lat="36.33724" lon="30.29646">
        <ele>37.306683</ele>
        <time>2022-01-20T10:06:35.754Z</time>
      </trkpt>
      <trkpt lat="36.33481" lon="30.29589">
        <ele>37.288495</ele>
        <time>2022-01-20T10:07:33.752Z</time>
      </trkpt>
      <trkpt lat="36.33213" lon="30.29543">
        <ele>39.657695</ele>
        <time>2022-01-20T10:08:37.770Z</time>
      </trkpt>
      <trkpt lat="36.32975" lon="30.29495">
        <ele>33.833825</ele>
        <time>2022-01-20T10:09:34.778Z</time>
      </trkpt>
      <trkpt lat="36.32712" lon="30.29443">
        <ele>30.30943</ele>
        <time>2022-01-20T10:10:40.775Z</time>
      </trkpt>
      <trkpt lat="36.32462" lon="30.29396">
        <ele>32.012448</ele>
        <time>2022-01-20T10:11:43.756Z</time>
      </trkpt>
      <trkpt lat="36.32203" lon="30.29346">
        <ele>30.658053</ele>
        <time>2022-01-20T10:12:49.768Z</time>
      </trkpt>
      <trkpt lat="36.31955" lon="30.29297">
        <ele>33.915643</ele>
        <time>2022-01-20T10:13:51.790Z</time>
      </trkpt>
      <trkpt lat="36.31747" lon="30.29154">
        <ele>28.338371</ele>
        <time>2022-01-20T10:14:57.768Z</time>
      </trkpt>
      <trkpt lat="36.31811" lon="30.28859">
        <ele>30.180437</ele>
        <time>2022-01-20T10:16:00.806Z</time>
      </trkpt>
      <trkpt lat="36.31873" lon="30.2856">
        <ele>33.842781</ele>
        <time>2022-01-20T10:17:06.766Z</time>
      </trkpt>
      <trkpt lat="36.31894" lon="30.28272">
        <ele>39.788186</ele>
        <time>2022-01-20T10:18:10.774Z</time>
      </trkpt>
      <trkpt lat="36.31914" lon="30.27955">
        <ele>44.297267</ele>
        <time>2022-01-20T10:19:13.766Z</time>
      </trkpt>
      <trkpt lat="36.3194" lon="30.2764">
        <ele>34.622393</ele>
        <time>2022-01-20T10:20:18.776Z</time>
      </trkpt>
      <trkpt lat="36.32005" lon="30.27396">
        <ele>26.059817</ele>
        <time>2022-01-20T10:21:22.801Z</time>
      </trkpt>
      <trkpt lat="36.31946" lon="30.27152">
        <ele>22.936742</ele>
        <time>2022-01-20T10:22:44.770Z</time>
      </trkpt>
      <trkpt lat="36.3189" lon="30.26902">
        <ele>25.530707</ele>
        <time>2022-01-20T10:23:47.786Z</time>
      </trkpt>
      <trkpt lat="36.31827" lon="30.26626">
        <ele>28.697188</ele>
        <time>2022-01-20T10:24:56.783Z</time>
      </trkpt>
      <trkpt lat="36.3177" lon="30.26367">
        <ele>27.121427</ele>
        <time>2022-01-20T10:26:13.807Z</time>
      </trkpt>
      <trkpt lat="36.3171" lon="30.26102">
        <ele>27.781277</ele>
        <time>2022-01-20T10:27:20.791Z</time>
      </trkpt>
      <trkpt lat="36.31666" lon="30.25849">
        <ele>28.992142</ele>
        <time>2022-01-20T10:28:23.762Z</time>
      </trkpt>
      <trkpt lat="36.31645" lon="30.25584">
        <ele>30.436231</ele>
        <time>2022-01-20T10:29:29.782Z</time>
      </trkpt>
      <trkpt lat="36.31642" lon="30.2532">
        <ele>38.585716</ele>
        <time>2022-01-20T10:30:37.785Z</time>
      </trkpt>
      <trkpt lat="36.31644" lon="30.25052">
        <ele>34.036192</ele>
        <time>2022-01-20T10:32:08.767Z</time>
      </trkpt>
      <trkpt lat="36.31641" lon="30.2476">
        <ele>29.429772</ele>
        <time>2022-01-20T10:33:20.783Z</time>
      </trkpt>
      <trkpt lat="36.31647" lon="30.24459">
        <ele>30.67887</ele>
        <time>2022-01-20T10:34:23.785Z</time>
      </trkpt>
      <trkpt lat="36.31664" lon="30.24122">
        <ele>30.626076</ele>
        <time>2022-01-20T10:35:29.779Z</time>
      </trkpt>
      <trkpt lat="36.31675" lon="30.23809">
        <ele>33.462135</ele>
        <time>2022-01-20T10:36:32.779Z</time>
      </trkpt>
      <trkpt lat="36.31693" lon="30.23488">
        <ele>21.858322</ele>
        <time>2022-01-20T10:37:35.777Z</time>
      </trkpt>
      <trkpt lat="36.31676" lon="30.23185">
        <ele>18.79093</ele>
        <time>2022-01-20T10:38:33.763Z</time>
      </trkpt>
      <trkpt lat="36.31581" lon="30.22881">
        <ele>24.975373</ele>
        <time>2022-01-20T10:39:39.762Z</time>
      </trkpt>
      <trkpt lat="36.31495" lon="30.22624">
        <ele>26.908489</ele>
        <time>2022-01-20T10:40:42.830Z</time>
      </trkpt>
      <trkpt lat="36.3146" lon="30.22328">
        <ele>23.811594</ele>
        <time>2022-01-20T10:41:45.789Z</time>
      </trkpt>
      <trkpt lat="36.31474" lon="30.22007">
        <ele>28.733918</ele>
        <time>2022-01-20T10:42:51.750Z</time>
      </trkpt>
      <trkpt lat="36.31502" lon="30.21705">
        <ele>29.832473</ele>
        <time>2022-01-20T10:43:54.794Z</time>
      </trkpt>
      <trkpt lat="36.31529" lon="30.21379">
        <ele>26.672197</ele>
        <time>2022-01-20T10:45:00.778Z</time>
      </trkpt>
      <trkpt lat="36.31631" lon="30.21199">
        <ele>28.421641</ele>
        <time>2022-01-20T10:46:20.810Z</time>
      </trkpt>
      <trkpt lat="36.31542" lon="30.21113">
        <ele>34.523562</ele>
        <time>2022-01-20T11:21:20.780Z</time>
      </trkpt>
      <trkpt lat="36.31558" lon="30.20823">
        <ele>29.226996</ele>
        <time>2022-01-20T11:22:23.774Z</time>
      </trkpt>
      <trkpt lat="36.31558" lon="30.20521">
        <ele>34.406355</ele>
        <time>2022-01-20T11:23:29.831Z</time>
      </trkpt>
      <trkpt lat="36.31552" lon="30.20237">
        <ele>36.26941</ele>
        <time>2022-01-20T11:24:32.784Z</time>
      </trkpt>
      <trkpt lat="36.3155" lon="30.19935">
        <ele>36.918708</ele>
        <time>2022-01-20T11:25:38.759Z</time>
      </trkpt>
      <trkpt lat="36.31549" lon="30.19642">
        <ele>35.845797</ele>
        <time>2022-01-20T11:26:41.762Z</time>
      </trkpt>
      <trkpt lat="36.31544" lon="30.19332">
        <ele>30.63557</ele>
        <time>2022-01-20T11:27:44.776Z</time>
      </trkpt>
      <trkpt lat="36.3154" lon="30.19027">
        <ele>28.346219</ele>
        <time>2022-01-20T11:28:50.778Z</time>
      </trkpt>
      <trkpt lat="36.31528" lon="30.18737">
        <ele>30.47263</ele>
        <time>2022-01-20T11:29:53.797Z</time>
      </trkpt>
      <trkpt lat="36.31475" lon="30.18431">
        <ele>34.225051</ele>
        <time>2022-01-20T11:30:59.778Z</time>
      </trkpt>
      <trkpt lat="36.31409" lon="30.18147">
        <ele>35.176982</ele>
        <time>2022-01-20T11:32:02.779Z</time>
      </trkpt>
      <trkpt lat="36.31337" lon="30.17857">
        <ele>32.981374</ele>
        <time>2022-01-20T11:33:08.782Z</time>
      </trkpt>
      <trkpt lat="36.31269" lon="30.17583">
        <ele>29.691642</ele>
        <time>2022-01-20T11:34:11.779Z</time>
      </trkpt>
      <trkpt lat="36.31194" lon="30.17281">
        <ele>26.847834</ele>
        <time>2022-01-20T11:35:17.771Z</time>
      </trkpt>
      <trkpt lat="36.31122" lon="30.17001">
        <ele>24.872861</ele>
        <time>2022-01-20T11:36:20.775Z</time>
      </trkpt>
      <trkpt lat="36.31048" lon="30.16725">
        <ele>23.14907</ele>
        <time>2022-01-20T11:37:28.776Z</time>
      </trkpt>
      <trkpt lat="36.30948" lon="30.16464">
        <ele>20.825379</ele>
        <time>2022-01-20T11:38:34.775Z</time>
      </trkpt>
      <trkpt lat="36.30824" lon="30.16211">
        <ele>18.61302</ele>
        <time>2022-01-20T11:39:37.819Z</time>
      </trkpt>
      <trkpt lat="36.3069" lon="30.1596">
        <ele>17.119352</ele>
        <time>2022-01-20T11:40:43.771Z</time>
      </trkpt>
      <trkpt lat="36.3057" lon="30.15738">
        <ele>20.744457</ele>
        <time>2022-01-20T11:41:46.776Z</time>
      </trkpt>
      <trkpt lat="36.30439" lon="30.15491">
        <ele>19.791353</ele>
        <time>2022-01-20T11:42:52.775Z</time>
      </trkpt>
      <trkpt lat="36.30364" lon="30.15256">
        <ele>18.798466</ele>
        <time>2022-01-20T11:44:00.765Z</time>
      </trkpt>
      <trkpt lat="36.30219" lon="30.15012">
        <ele>27.206072</ele>
        <time>2022-01-20T11:45:06.766Z</time>
      </trkpt>
      <trkpt lat="36.3007" lon="30.14801">
        <ele>26.418698</ele>
        <time>2022-01-20T11:46:10.773Z</time>
      </trkpt>
      <trkpt lat="36.29869" lon="30.1466">
        <ele>29.493355</ele>
        <time>2022-01-20T11:47:16.765Z</time>
      </trkpt>
      <trkpt lat="36.29638" lon="30.14603">
        <ele>19.901677</ele>
        <time>2022-01-20T11:48:21.794Z</time>
      </trkpt>
      <trkpt lat="36.29444" lon="30.14739">
        <ele>16.872409</ele>
        <time>2022-01-20T11:49:38.795Z</time>
      </trkpt>
      <trkpt lat="36.29254" lon="30.14821">
        <ele>18.147688</ele>
        <time>2022-01-20T11:51:04.786Z</time>
      </trkpt>
      <trkpt lat="36.29077" lon="30.14947">
        <ele>15.507612</ele>
        <time>2022-01-20T11:52:19.773Z</time>
      </trkpt>
      <trkpt lat="36.28869" lon="30.15013">
        <ele>17.14711</ele>
        <time>2022-01-20T11:53:25.775Z</time>
      </trkpt>
      <trkpt lat="36.28708" lon="30.15184">
        <ele>24.731533</ele>
        <time>2022-01-20T11:54:36.778Z</time>
      </trkpt>
      <trkpt lat="36.28499" lon="30.15118">
        <ele>25.176807</ele>
        <time>2022-01-20T11:57:23.782Z</time>
      </trkpt>
      <trkpt lat="36.2827" lon="30.15094">
        <ele>15.97033</ele>
        <time>2022-01-20T11:58:07.782Z</time>
      </trkpt>
      <trkpt lat="36.28065" lon="30.15124">
        <ele>21.880855</ele>
        <time>2022-01-20T11:59:08.778Z</time>
      </trkpt>
      <trkpt lat="36.27933" lon="30.15243">
        <ele>18.468268</ele>
        <time>2022-01-20T12:00:04.790Z</time>
      </trkpt>
      <trkpt lat="36.27727" lon="30.15215">
        <ele>16.937876</ele>
        <time>2022-01-20T12:01:05.791Z</time>
      </trkpt>
      <trkpt lat="36.27515" lon="30.15193">
        <ele>14.916152</ele>
        <time>2022-01-20T12:02:27.793Z</time>
      </trkpt>
      <trkpt lat="36.27557" lon="30.14946">
        <ele>24.780933</ele>
        <time>2022-01-20T12:04:34.777Z</time>
      </trkpt>
      <trkpt lat="36.2756" lon="30.14681">
        <ele>22.72632</ele>
        <time>2022-01-20T12:05:35.783Z</time>
      </trkpt>
      <trkpt lat="36.27652" lon="30.1442">
        <ele>17.717359</ele>
        <time>2022-01-20T12:06:54.816Z</time>
      </trkpt>
      <trkpt lat="36.27873" lon="30.14177">
        <ele>5.934664</ele>
        <time>2022-01-20T12:07:35.791Z</time>
      </trkpt>
      <trkpt lat="36.279" lon="30.13902">
        <ele>2.800897</ele>
        <time>2022-01-20T12:08:13.824Z</time>
      </trkpt>
      <trkpt lat="36.27717" lon="30.13736">
        <ele>15.258212</ele>
        <time>2022-01-20T12:09:19.776Z</time>
      </trkpt>
      <trkpt lat="36.27529" lon="30.13582">
        <ele>23.232554</ele>
        <time>2022-01-20T12:10:25.813Z</time>
      </trkpt>
      <trkpt lat="36.27414" lon="30.13414">
        <ele>24.887641</ele>
        <time>2022-01-20T12:11:33.779Z</time>
      </trkpt>
      <trkpt lat="36.27278" lon="30.13332">
        <ele>21.362975</ele>
        <time>2022-01-20T12:12:39.785Z</time>
      </trkpt>
      <trkpt lat="36.2708" lon="30.13239">
        <ele>25.36113</ele>
        <time>2022-01-20T12:14:15.794Z</time>
      </trkpt>
      <trkpt lat="36.26977" lon="30.1309">
        <ele>35.487673</ele>
        <time>2022-01-20T12:15:38.780Z</time>
      </trkpt>
      <trkpt lat="36.26832" lon="30.12948">
        <ele>39.449252</ele>
        <time>2022-01-20T12:18:14.795Z</time>
      </trkpt>
      <trkpt lat="36.26604" lon="30.13103">
        <ele>29.286816</ele>
        <time>2022-01-20T12:19:07.785Z</time>
      </trkpt>
      <trkpt lat="36.26455" lon="30.12915">
        <ele>31.873783</ele>
        <time>2022-01-20T12:20:23.830Z</time>
      </trkpt>
      <trkpt lat="36.26269" lon="30.12778">
        <ele>32.845127</ele>
        <time>2022-01-20T12:21:20.781Z</time>
      </trkpt>
      <trkpt lat="36.26232" lon="30.12538">
        <ele>34.096375</ele>
        <time>2022-01-20T12:22:25.766Z</time>
      </trkpt>
      <trkpt lat="36.26307" lon="30.12256">
        <ele>35.47251</ele>
        <time>2022-01-20T12:23:22.788Z</time>
      </trkpt>
      <trkpt lat="36.26225" lon="30.12083">
        <ele>30.484201</ele>
        <time>2022-01-20T12:24:13.768Z</time>
      </trkpt>
      <trkpt lat="36.26015" lon="30.12139">
        <ele>29.213834</ele>
        <time>2022-01-20T12:25:46.785Z</time>
      </trkpt>
      <trkpt lat="36.25797" lon="30.12147">
        <ele>24.066446</ele>
        <time>2022-01-20T12:27:06.792Z</time>
      </trkpt>
      <trkpt lat="36.25706" lon="30.11908">
        <ele>25.889456</ele>
        <time>2022-01-20T12:28:18.770Z</time>
      </trkpt>
      <trkpt lat="36.25503" lon="30.11992">
        <ele>22.031906</ele>
        <time>2022-01-20T12:29:18.775Z</time>
      </trkpt>
      <trkpt lat="36.25283" lon="30.11965">
        <ele>18.63399</ele>
        <time>2022-01-20T12:30:19.787Z</time>
      </trkpt>
      <trkpt lat="36.2519" lon="30.11827">
        <ele>23.163638</ele>
        <time>2022-01-20T12:31:16.791Z</time>
      </trkpt>
      <trkpt lat="36.25115" lon="30.117">
        <ele>26.500966</ele>
        <time>2022-01-20T12:32:40.780Z</time>
      </trkpt>
      <trkpt lat="36.24916" lon="30.11655">
        <ele>21.862597</ele>
        <time>2022-01-20T12:34:10.797Z</time>
      </trkpt>
      <trkpt lat="36.24796" lon="30.11454">
        <ele>28.006098</ele>
        <time>2022-01-20T12:34:59.781Z</time>
      </trkpt>
      <trkpt lat="36.24722" lon="30.11196">
        <ele>31.992175</ele>
        <time>2022-01-20T12:36:19.808Z</time>
      </trkpt>
      <trkpt lat="36.24867" lon="30.11002">
        <ele>52.541653</ele>
        <time>2022-01-20T12:37:46.807Z</time>
      </trkpt>
      <trkpt lat="36.25048" lon="30.10895">
        <ele>84.11992</ele>
        <time>2022-01-20T12:39:30.797Z</time>
      </trkpt>
      <trkpt lat="36.249" lon="30.10778">
        <ele>38.157872</ele>
        <time>2022-01-20T12:40:22.779Z</time>
      </trkpt>
      <trkpt lat="36.24718" lon="30.10631">
        <ele>2.852763</ele>
        <time>2022-01-20T12:41:38.779Z</time>
      </trkpt>
      <trkpt lat="36.24713" lon="30.10358">
        <ele>32.686694</ele>
        <time>2022-01-20T12:42:38.794Z</time>
      </trkpt>
      <trkpt lat="36.24879" lon="30.10201">
        <ele>79.313476</ele>
        <time>2022-01-20T12:44:24.779Z</time>
      </trkpt>
      <trkpt lat="36.24859" lon="30.10051">
        <ele>57.052693</ele>
        <time>2022-01-20T12:46:24.795Z</time>
      </trkpt>
      <trkpt lat="36.24809" lon="30.09872">
        <ele>45.101902</ele>
        <time>2022-01-20T12:48:03.791Z</time>
      </trkpt>
      <trkpt lat="36.2488" lon="30.09635">
        <ele>57.125517</ele>
        <time>2022-01-20T12:48:52.826Z</time>
      </trkpt>
      <trkpt lat="36.24924" lon="30.09382">
        <ele>61.402203</ele>
        <time>2022-01-20T12:49:52.821Z</time>
      </trkpt>
      <trkpt lat="36.2508" lon="30.09302">
        <ele>72.884848</ele>
        <time>2022-01-20T12:51:50.828Z</time>
      </trkpt>
      <trkpt lat="36.25114" lon="30.0905">
        <ele>56.719468</ele>
        <time>2022-01-20T12:52:34.785Z</time>
      </trkpt>
      <trkpt lat="36.25105" lon="30.08738">
        <ele>33.404666</ele>
        <time>2022-01-20T12:53:27.792Z</time>
      </trkpt>
      <trkpt lat="36.2516" lon="30.08489">
        <ele>34.548408</ele>
        <time>2022-01-20T12:54:16.820Z</time>
      </trkpt>
      <trkpt lat="36.25356" lon="30.08545">
        <ele>80.148018</ele>
        <time>2022-01-20T12:56:12.792Z</time>
      </trkpt>
      <trkpt lat="36.25406" lon="30.0836">
        <ele>66.25644</ele>
        <time>2022-01-20T12:57:40.793Z</time>
      </trkpt>
      <trkpt lat="36.25419" lon="30.08059">
        <ele>51.362429</ele>
        <time>2022-01-20T12:58:27.800Z</time>
      </trkpt>
      <trkpt lat="36.25604" lon="30.08008">
        <ele>56.92381</ele>
        <time>2022-01-20T12:59:22.787Z</time>
      </trkpt>
      <trkpt lat="36.25695" lon="30.07862">
        <ele>60.669303</ele>
        <time>2022-01-20T13:00:35.811Z</time>
      </trkpt>
      <trkpt lat="36.2571" lon="30.07599">
        <ele>41.965156</ele>
        <time>2022-01-20T13:01:20.794Z</time>
      </trkpt>
      <trkpt lat="36.25887" lon="30.07389">
        <ele>37.802577</ele>
        <time>2022-01-20T13:02:02.797Z</time>
      </trkpt>
      <trkpt lat="36.26061" lon="30.07052">
        <ele>22.834803</ele>
        <time>2022-01-20T13:02:46.800Z</time>
      </trkpt>
      <trkpt lat="36.26263" lon="30.06833">
        <ele>18.555161</ele>
        <time>2022-01-20T13:03:37.791Z</time>
      </trkpt>
      <trkpt lat="36.26432" lon="30.06662">
        <ele>20.247886</ele>
        <time>2022-01-20T13:04:25.791Z</time>
      </trkpt>
      <trkpt lat="36.26614" lon="30.06483">
        <ele>25.737578</ele>
        <time>2022-01-20T13:05:18.813Z</time>
      </trkpt>
      <trkpt lat="36.2678" lon="30.06287">
        <ele>16.983043</ele>
        <time>2022-01-20T13:06:07.784Z</time>
      </trkpt>
      <trkpt lat="36.26931" lon="30.06127">
        <ele>12.628137</ele>
        <time>2022-01-20T13:07:07.784Z</time>
      </trkpt>
      <trkpt lat="36.27072" lon="30.05895">
        <ele>15.945108</ele>
        <time>2022-01-20T13:08:10.783Z</time>
      </trkpt>
      <trkpt lat="36.27304" lon="30.05911">
        <ele>10.919221</ele>
        <time>2022-01-20T13:09:16.788Z</time>
      </trkpt>
      <trkpt lat="36.27487" lon="30.05792">
        <ele>17.5333</ele>
        <time>2022-01-20T13:10:19.797Z</time>
      </trkpt>
      <trkpt lat="36.27533" lon="30.05508">
        <ele>16.634368</ele>
        <time>2022-01-20T13:11:24.775Z</time>
      </trkpt>
      <trkpt lat="36.27432" lon="30.05203">
        <ele>13.625551</ele>
        <time>2022-01-20T13:12:27.788Z</time>
      </trkpt>
      <trkpt lat="36.27338" lon="30.04934">
        <ele>10.794261</ele>
        <time>2022-01-20T13:13:20.817Z</time>
      </trkpt>
      <trkpt lat="36.27232" lon="30.04698">
        <ele>8.527519</ele>
        <time>2022-01-20T13:14:31.826Z</time>
      </trkpt>
      <trkpt lat="36.27021" lon="30.04592">
        <ele>5.334635</ele>
        <time>2022-01-20T13:15:31.802Z</time>
      </trkpt>
      <trkpt lat="36.269" lon="30.04396">
        <ele>-0.248244</ele>
        <time>2022-01-20T13:16:31.801Z</time>
      </trkpt>
      <trkpt lat="36.26702" lon="30.04347">
        <ele>-1.086096</ele>
        <time>2022-01-20T13:17:30.829Z</time>
      </trkpt>
      <trkpt lat="36.26591" lon="30.0411">
        <ele>1.703318</ele>
        <time>2022-01-20T13:18:19.802Z</time>
      </trkpt>
      <trkpt lat="36.26354" lon="30.04033">
        <ele>0.963921</ele>
        <time>2022-01-20T13:19:15.792Z</time>
      </trkpt>
      <trkpt lat="36.26134" lon="30.04016">
        <ele>8.100471</ele>
        <time>2022-01-20T13:20:13.778Z</time>
      </trkpt>
      <trkpt lat="36.25952" lon="30.03828">
        <ele>3.769189</ele>
        <time>2022-01-20T13:21:16.800Z</time>
      </trkpt>
      <trkpt lat="36.25748" lon="30.03641">
        <ele>11.447879</ele>
        <time>2022-01-20T13:22:21.784Z</time>
      </trkpt>
      <trkpt lat="36.25604" lon="30.0341">
        <ele>11.447768</ele>
        <time>2022-01-20T13:23:24.806Z</time>
      </trkpt>
      <trkpt lat="36.25532" lon="30.03118">
        <ele>11.077681</ele>
        <time>2022-01-20T13:24:30.833Z</time>
      </trkpt>
      <trkpt lat="36.25493" lon="30.02829">
        <ele>6.932038</ele>
        <time>2022-01-20T13:25:33.791Z</time>
      </trkpt>
      <trkpt lat="36.25451" lon="30.02549">
        <ele>8.9188</ele>
        <time>2022-01-20T13:26:39.837Z</time>
      </trkpt>
      <trkpt lat="36.25411" lon="30.02287">
        <ele>13.780521</ele>
        <time>2022-01-20T13:27:43.799Z</time>
      </trkpt>
      <trkpt lat="36.25325" lon="30.02034">
        <ele>16.150302</ele>
        <time>2022-01-20T13:28:46.795Z</time>
      </trkpt>
      <trkpt lat="36.25236" lon="30.01776">
        <ele>12.908088</ele>
        <time>2022-01-20T13:29:53.804Z</time>
      </trkpt>
      <trkpt lat="36.25189" lon="30.01522">
        <ele>14.313702</ele>
        <time>2022-01-20T13:30:59.814Z</time>
      </trkpt>
      <trkpt lat="36.25134" lon="30.01255">
        <ele>17.974067</ele>
        <time>2022-01-20T13:32:10.788Z</time>
      </trkpt>
      <trkpt lat="36.25051" lon="30.01001">
        <ele>14.356231</ele>
        <time>2022-01-20T13:33:17.798Z</time>
      </trkpt>
      <trkpt lat="36.24947" lon="30.00731">
        <ele>18.068648</ele>
        <time>2022-01-20T13:34:17.798Z</time>
      </trkpt>
      <trkpt lat="36.24854" lon="30.00473">
        <ele>14.950942</ele>
        <time>2022-01-20T13:35:09.798Z</time>
      </trkpt>
      <trkpt lat="36.24771" lon="30.0019">
        <ele>15.798194</ele>
        <time>2022-01-20T13:36:04.800Z</time>
      </trkpt>
      <trkpt lat="36.24673" lon="29.99916">
        <ele>17.533467</ele>
        <time>2022-01-20T13:37:03.801Z</time>
      </trkpt>
      <trkpt lat="36.24518" lon="29.99763">
        <ele>15.985159</ele>
        <time>2022-01-20T13:38:05.792Z</time>
      </trkpt>
      <trkpt lat="36.2446" lon="29.99557">
        <ele>16.398165</ele>
        <time>2022-01-20T13:38:53.793Z</time>
      </trkpt>
      <trkpt lat="36.24437" lon="29.99287">
        <ele>24.350484</ele>
        <time>2022-01-20T13:39:51.799Z</time>
      </trkpt>
      <trkpt lat="36.24379" lon="29.98993">
        <ele>33.858932</ele>
        <time>2022-01-20T13:40:52.794Z</time>
      </trkpt>
      <trkpt lat="36.24284" lon="29.98778">
        <ele>30.176886</ele>
        <time>2022-01-20T13:42:22.812Z</time>
      </trkpt>
      <trkpt lat="36.24044" lon="29.98829">
        <ele>19.157127</ele>
        <time>2022-01-20T13:43:19.790Z</time>
      </trkpt>
      <trkpt lat="36.23846" lon="29.98892">
        <ele>18.442286</ele>
        <time>2022-01-20T13:44:28.802Z</time>
      </trkpt>
      <trkpt lat="36.23744" lon="29.98963">
        <ele>18.442286</ele>
        <time>2022-01-20T13:47:28.227Z</time>
      </trkpt>
    </trkseg>
  </trk>
</gpx>